createdAt,value
2023-09-12T00:00:51.762Z,50.55
2023-09-12T00:01:54.027Z,52.30
2023-09-12T00:02:56.094Z,54.25
2023-09-12T00:04:03.288Z,53.53
2023-09-12T00:05:06.265Z,51.60
2023-09-12T00:06:08.747Z,55.15
2023-09-12T00:07:11.119Z,58.55
2023-09-12T00:08:13.225Z,59.97
2023-09-12T00:09:15.133Z,62.58
2023-09-12T00:10:16.967Z,57.53
2023-09-12T00:11:20.069Z,53.65
2023-09-12T00:12:28.175Z,60.53
2023-09-12T00:13:32.823Z,67.65
2023-09-12T00:14:34.711Z,64.43
2023-09-12T00:15:36.621Z,63.17
2023-09-12T00:16:38.566Z,62.10
2023-09-12T00:17:40.538Z,64.57
2023-09-12T00:18:43.888Z,51.10
2023-09-12T00:19:45.894Z,47.72
2023-09-12T00:20:48.012Z,49.47
2023-09-12T00:21:49.791Z,43.80
2023-09-12T00:22:52.033Z,48.08
2023-09-12T00:23:54.298Z,44.08
2023-09-12T00:24:56.482Z,48.37
2023-09-12T00:26:00.543Z,47.38
2023-09-12T00:27:02.389Z,48.17
2023-09-12T00:28:06.029Z,46.40
2023-09-12T00:29:08.207Z,44.47
2023-09-12T00:30:11.770Z,44.25
2023-09-12T00:31:14.620Z,45.38
2023-09-12T00:32:16.484Z,41.47
2023-09-12T00:33:20.912Z,39.60
2023-09-12T00:34:24.987Z,43.70
2023-09-12T00:35:28.231Z,47.57
2023-09-12T00:36:31.025Z,55.28
2023-09-12T00:37:34.134Z,54.88
2023-09-12T00:38:37.529Z,54.65
2023-09-12T00:39:39.582Z,47.20
2023-09-12T00:40:41.760Z,45.97
2023-09-12T00:41:45.186Z,47.08
2023-09-12T00:42:47.302Z,39.42
2023-09-12T00:43:49.853Z,38.05
2023-09-12T00:44:51.901Z,49.58
2023-09-12T00:45:55.298Z,47.43
2023-09-12T00:46:59.222Z,56.80
2023-09-12T00:48:05.559Z,50.95
2023-09-12T00:49:09.241Z,52.80
2023-09-12T00:50:14.440Z,54.83
2023-09-12T00:51:18.432Z,53.28
2023-09-12T00:52:23.005Z,47.63
2023-09-12T00:53:26.480Z,54.65
2023-09-12T00:54:28.447Z,47.38
2023-09-12T00:55:36.458Z,52.20
2023-09-12T00:56:41.886Z,61.10
2023-09-12T00:57:46.522Z,57.75
2023-09-12T00:58:52.733Z,56.03
2023-09-12T00:59:57.194Z,55.95
2023-09-12T01:01:00.782Z,53.88
2023-09-12T01:02:04.568Z,54.00
2023-09-12T01:03:06.801Z,53.22
2023-09-12T01:04:20.450Z,53.83
2023-09-12T01:05:30.305Z,46.08
2023-09-12T01:06:34.717Z,47.80
2023-09-12T01:07:38.721Z,40.93
2023-09-12T01:08:44.357Z,40.80
2023-09-12T01:09:47.875Z,37.83
2023-09-12T01:10:54.138Z,42.60
2023-09-12T01:11:56.653Z,43.10
2023-09-12T01:12:59.987Z,43.13
2023-09-12T01:14:01.788Z,49.13
2023-09-12T01:15:14.571Z,38.47
2023-09-12T01:16:16.688Z,39.35
2023-09-12T01:17:19.011Z,40.60
2023-09-12T01:18:21.507Z,46.70
2023-09-12T01:19:25.074Z,43.20
2023-09-12T01:20:30.341Z,49.83
2023-09-12T01:22:22.830Z,56.53
2023-09-12T01:24:06.660Z,55.35
2023-09-12T01:25:42.528Z,48.25
2023-09-12T01:27:00.604Z,43.33
2023-09-12T01:28:07.123Z,52.08
2023-09-12T01:29:10.446Z,49.83
2023-09-12T01:30:13.569Z,57.45
2023-09-12T01:31:17.708Z,61.63
2023-09-12T01:32:21.020Z,48.15
2023-09-12T01:33:23.804Z,52.92
2023-09-12T01:34:25.708Z,54.72
2023-09-12T01:35:27.470Z,58.65
2023-09-12T01:36:29.649Z,59.88
2023-09-12T01:37:32.607Z,64.53
2023-09-12T01:38:35.245Z,56.65
2023-09-12T01:39:37.236Z,52.13
2023-09-12T01:40:59.962Z,57.83
2023-09-12T01:42:02.817Z,52.83
2023-09-12T01:43:06.451Z,55.65
2023-09-12T01:44:11.660Z,61.58
2023-09-12T01:45:18.556Z,59.88
2023-09-12T01:46:22.915Z,59.72
2023-09-12T01:47:27.352Z,46.60
2023-09-12T01:48:34.859Z,53.50
2023-09-12T01:49:38.410Z,48.38
2023-09-12T01:50:40.329Z,47.22
2023-09-12T01:51:42.312Z,43.47
2023-09-12T01:52:44.877Z,52.70
2023-09-12T01:53:48.319Z,56.05
2023-09-12T01:54:51.778Z,51.83
2023-09-12T01:55:55.196Z,47.10
2023-09-12T01:56:58.968Z,41.70
2023-09-12T01:58:01.028Z,39.97
2023-09-12T01:59:04.855Z,43.85
2023-09-12T02:00:07.668Z,41.85
2023-09-12T02:01:10.973Z,46.63
2023-09-12T02:02:12.874Z,54.13
2023-09-12T02:03:14.807Z,59.83
2023-09-12T02:04:16.670Z,56.65
2023-09-12T02:05:23.719Z,45.80
2023-09-12T02:06:26.247Z,42.10
2023-09-12T02:07:33.829Z,42.03
2023-09-12T02:08:35.556Z,47.88
2023-09-12T02:09:37.397Z,51.33
2023-09-12T02:10:40.789Z,68.15
2023-09-12T02:11:43.935Z,66.75
2023-09-12T02:12:45.775Z,119.35
2023-09-12T02:13:47.733Z,274.17
2023-09-12T02:14:49.847Z,80.95
2023-09-12T02:15:51.840Z,60.20
2023-09-12T02:16:53.847Z,47.72
2023-09-12T02:17:56.389Z,73.75
2023-09-12T02:18:58.259Z,136.93
2023-09-12T02:20:00.212Z,73.78
2023-09-12T02:21:02.193Z,105.15
2023-09-12T02:22:04.365Z,201.27
2023-09-12T02:23:06.652Z,150.98
2023-09-12T02:24:08.907Z,52.47
2023-09-12T02:25:12.032Z,47.20
2023-09-12T02:26:13.920Z,45.70
2023-09-12T02:27:15.910Z,46.35
2023-09-12T02:28:18.433Z,56.17
2023-09-12T02:29:20.217Z,71.15
2023-09-12T02:30:22.033Z,130.05
2023-09-12T02:31:23.922Z,106.22
2023-09-12T02:32:25.758Z,171.10
2023-09-12T02:33:28.144Z,151.23
2023-09-12T02:34:30.384Z,70.07
2023-09-12T02:35:32.335Z,89.47
2023-09-12T02:36:34.171Z,71.47
2023-09-12T02:37:36.258Z,50.85
2023-09-12T02:38:41.401Z,49.40
2023-09-12T02:39:43.601Z,51.88
2023-09-12T02:40:45.491Z,82.40
2023-09-12T02:41:47.612Z,466.30
2023-09-12T02:42:49.383Z,509.98
2023-09-12T02:43:51.198Z,279.33
2023-09-12T02:44:53.769Z,431.13
2023-09-12T02:45:55.818Z,532.85
2023-09-12T02:46:57.827Z,554.83
2023-09-12T02:47:59.768Z,568.08
2023-09-12T02:49:01.633Z,693.10
2023-09-12T02:50:04.243Z,772.90
2023-09-12T02:51:06.054Z,1056.03
2023-09-12T02:52:08.381Z,920.55
2023-09-12T02:53:10.438Z,324.13
2023-09-12T02:54:12.453Z,522.38
2023-09-12T02:55:14.850Z,264.67
2023-09-12T02:56:16.607Z,164.77
2023-09-12T02:57:18.464Z,446.98
2023-09-12T02:58:20.359Z,314.30
2023-09-12T02:59:22.169Z,320.52
2023-09-12T03:00:24.155Z,630.85
2023-09-12T03:01:29.027Z,571.50
2023-09-12T03:02:32.171Z,551.38
2023-09-12T03:03:34.617Z,153.52
2023-09-12T03:04:45.511Z,118.82
2023-09-12T03:05:47.500Z,73.57
2023-09-12T03:06:49.750Z,65.32
2023-09-12T03:07:51.805Z,73.45
2023-09-12T03:08:53.609Z,53.53
2023-09-12T03:09:55.617Z,59.95
2023-09-12T03:10:58.090Z,319.67
2023-09-12T03:12:03.396Z,419.58
2023-09-12T03:13:06.009Z,550.92
2023-09-12T03:14:08.732Z,275.33
2023-09-12T03:15:11.221Z,58.53
2023-09-12T03:16:14.636Z,131.67
2023-09-12T03:17:16.893Z,106.88
2023-09-12T03:18:18.976Z,290.77
2023-09-12T03:19:20.816Z,141.25
2023-09-12T03:20:22.646Z,70.88
2023-09-12T03:21:24.625Z,71.65
2023-09-12T03:22:26.586Z,670.10
2023-09-12T03:23:28.838Z,742.92
2023-09-12T03:24:30.909Z,320.48
2023-09-12T03:25:37.843Z,60.85
2023-09-12T03:26:39.611Z,56.07
2023-09-12T03:27:41.440Z,47.40
2023-09-12T03:28:43.706Z,63.17
2023-09-12T03:29:48.949Z,179.98
2023-09-12T03:30:51.013Z,951.97
2023-09-12T03:31:52.886Z,820.00
2023-09-12T03:32:55.898Z,613.65
2023-09-12T03:33:58.191Z,638.22
2023-09-12T03:35:00.207Z,285.42
2023-09-12T03:36:03.466Z,109.25
2023-09-12T03:37:05.342Z,83.57
2023-09-12T03:38:08.200Z,155.38
2023-09-12T03:39:10.138Z,120.25
2023-09-12T03:40:12.766Z,47.60
2023-09-12T03:41:14.737Z,42.17
2023-09-12T03:42:16.924Z,40.47
2023-09-12T03:43:18.774Z,39.30
2023-09-12T03:44:20.585Z,35.08
2023-09-12T03:45:22.462Z,40.35
2023-09-12T03:46:24.433Z,38.28
2023-09-12T03:47:26.233Z,44.43
2023-09-12T03:48:28.136Z,70.95
2023-09-12T03:49:30.197Z,58.88
2023-09-12T03:50:32.724Z,103.07
2023-09-12T03:51:36.235Z,100.07
2023-09-12T03:52:38.186Z,116.35
2023-09-12T03:53:40.156Z,45.33
2023-09-12T03:54:42.599Z,56.55
2023-09-12T03:55:44.907Z,57.17
2023-09-12T03:56:47.123Z,53.55
2023-09-12T03:57:49.701Z,106.20
2023-09-12T03:58:51.572Z,51.60
2023-09-12T03:59:54.758Z,78.38
2023-09-12T04:02:14.443Z,65.93
2023-09-12T04:03:17.694Z,53.15
2023-09-12T04:04:21.080Z,61.03
2023-09-12T04:05:26.702Z,53.70
2023-09-12T04:06:28.609Z,46.28
2023-09-12T04:07:30.429Z,46.25
2023-09-12T04:08:33.710Z,41.30
2023-09-12T04:09:35.947Z,67.68
2023-09-12T04:10:37.767Z,49.20
2023-09-12T04:11:47.037Z,49.10
2023-09-12T04:12:49.700Z,47.42
2023-09-12T04:13:51.614Z,46.55
2023-09-12T04:14:53.950Z,47.33
2023-09-12T04:15:56.156Z,38.20
2023-09-12T04:16:58.826Z,47.85
2023-09-12T04:18:02.537Z,63.53
2023-09-12T04:19:05.360Z,58.23
2023-09-12T04:20:08.236Z,66.50
2023-09-12T04:21:10.203Z,65.93
2023-09-12T04:22:12.582Z,54.72
2023-09-12T04:23:14.955Z,50.58
2023-09-12T04:24:18.660Z,53.13
2023-09-12T04:25:21.194Z,51.75
2023-09-12T04:26:23.154Z,52.47
2023-09-12T04:27:25.157Z,96.50
2023-09-12T04:28:27.897Z,74.47
2023-09-12T04:29:29.889Z,66.70
2023-09-12T04:30:31.765Z,48.45
2023-09-12T04:31:34.027Z,44.92
2023-09-12T04:32:35.998Z,44.63
2023-09-12T04:33:37.830Z,43.53
2023-09-12T04:34:43.112Z,44.05
2023-09-12T04:35:44.979Z,39.78
2023-09-12T04:36:46.809Z,43.50
2023-09-12T04:37:49.412Z,49.45
2023-09-12T04:38:51.469Z,63.30
2023-09-12T04:39:53.420Z,57.67
2023-09-12T04:41:04.102Z,52.17
2023-09-12T04:42:06.201Z,52.83
2023-09-12T04:43:08.537Z,60.03
2023-09-12T04:44:11.351Z,46.78
2023-09-12T04:45:13.337Z,52.47
2023-09-12T04:46:15.997Z,48.58
2023-09-12T04:47:19.444Z,47.03
2023-09-12T04:48:21.402Z,45.03
2023-09-12T04:49:23.864Z,40.03
2023-09-12T04:50:25.763Z,41.63
2023-09-12T04:51:28.405Z,43.95
2023-09-12T04:52:33.406Z,43.75
2023-09-12T04:53:36.204Z,59.72
2023-09-12T04:54:41.391Z,269.15
2023-09-12T04:55:43.212Z,296.35
2023-09-12T04:56:45.088Z,335.88
2023-09-12T04:57:47.470Z,180.07
2023-09-12T04:58:49.461Z,155.77
2023-09-12T04:59:53.747Z,302.10
2023-09-12T05:00:57.074Z,481.10
2023-09-12T05:01:59.072Z,352.42
2023-09-12T05:03:03.400Z,261.45
2023-09-12T05:04:05.420Z,103.78
2023-09-12T05:05:07.773Z,103.07
2023-09-12T05:06:10.257Z,149.52
2023-09-12T05:07:12.652Z,222.80
2023-09-12T05:08:14.440Z,136.20
2023-09-12T05:09:16.697Z,91.45
2023-09-12T05:10:20.084Z,80.57
2023-09-12T05:11:26.015Z,115.73
2023-09-12T05:12:27.897Z,115.28
2023-09-12T05:13:31.060Z,84.45
2023-09-12T05:14:32.885Z,67.50
2023-09-12T05:15:34.891Z,46.05
2023-09-12T05:16:37.094Z,95.43
2023-09-12T05:17:39.103Z,62.35
2023-09-12T05:18:41.226Z,38.78
2023-09-12T05:19:44.024Z,38.53
2023-09-12T05:20:46.041Z,161.82
2023-09-12T05:21:47.925Z,251.10
2023-09-12T05:22:50.453Z,150.38
2023-09-12T05:23:52.428Z,314.13
2023-09-12T05:24:54.386Z,296.20
2023-09-12T05:25:56.369Z,272.15
2023-09-12T05:26:58.253Z,199.75
2023-09-12T05:28:02.917Z,56.50
2023-09-12T05:29:06.696Z,35.08
2023-09-12T05:30:08.916Z,38.03
2023-09-12T05:31:11.104Z,54.90
2023-09-12T05:32:13.217Z,75.23
2023-09-12T05:33:15.114Z,48.80
2023-09-12T05:34:17.268Z,64.00
2023-09-12T05:35:22.573Z,46.53
2023-09-12T05:36:26.256Z,57.42
2023-09-12T05:37:28.452Z,68.68
2023-09-12T05:38:30.724Z,67.55
2023-09-12T05:39:32.651Z,69.15
2023-09-12T05:40:34.535Z,36.72
2023-09-12T05:41:37.519Z,36.55
2023-09-12T05:42:39.409Z,45.20
2023-09-12T05:43:41.528Z,43.20
2023-09-12T05:44:46.150Z,55.33
2023-09-12T05:45:49.611Z,67.15
2023-09-12T05:46:51.535Z,56.28
2023-09-12T05:47:53.469Z,80.68
2023-09-12T05:48:55.603Z,130.05
2023-09-12T05:49:57.628Z,84.35
2023-09-12T05:50:59.622Z,72.78
2023-09-12T05:52:01.458Z,62.88
2023-09-12T05:53:03.823Z,68.27
2023-09-12T05:54:05.922Z,71.25
2023-09-12T05:55:08.149Z,62.25
2023-09-12T05:56:10.389Z,82.00
2023-09-12T05:57:13.050Z,70.85
2023-09-12T05:58:15.537Z,59.25
2023-09-12T05:59:18.150Z,52.13
2023-09-12T06:00:20.305Z,58.58
2023-09-12T06:01:22.299Z,54.80
2023-09-12T06:02:24.146Z,52.28
2023-09-12T06:03:26.038Z,52.90
2023-09-12T06:04:28.107Z,50.65
2023-09-12T06:05:31.214Z,56.20
2023-09-12T06:06:33.309Z,56.03
2023-09-12T06:07:35.242Z,52.05
2023-09-12T06:08:37.032Z,56.67
2023-09-12T06:09:39.038Z,52.10
2023-09-12T06:10:40.936Z,44.25
2023-09-12T06:11:42.721Z,51.50
2023-09-12T06:12:44.732Z,51.42
2023-09-12T06:13:46.524Z,47.63
2023-09-12T06:14:48.321Z,49.92
2023-09-12T06:15:50.086Z,42.67
2023-09-12T06:16:52.111Z,53.05
2023-09-12T06:17:55.379Z,51.45
2023-09-12T06:18:57.728Z,56.72
2023-09-12T06:19:59.863Z,48.83
2023-09-12T06:21:07.412Z,49.53
2023-09-12T06:22:09.498Z,51.40
2023-09-12T06:23:11.817Z,45.80
2023-09-12T06:24:21.184Z,41.60
2023-09-12T06:25:23.094Z,41.92
2023-09-12T06:26:26.334Z,38.95
2023-09-12T06:27:28.368Z,32.70
2023-09-12T06:28:32.320Z,36.50
2023-09-12T06:29:34.158Z,44.97
2023-09-12T06:30:36.190Z,46.15
2023-09-12T06:31:42.441Z,51.00
2023-09-12T06:32:44.745Z,39.47
2023-09-12T06:33:46.785Z,53.83
2023-09-12T06:34:49.380Z,46.10
2023-09-12T06:35:53.751Z,44.45
2023-09-12T06:36:55.639Z,46.40
2023-09-12T06:37:58.027Z,49.50
2023-09-12T06:39:00.948Z,48.13
2023-09-12T06:40:03.211Z,44.65
2023-09-12T06:41:05.348Z,41.67
2023-09-12T06:42:07.623Z,43.65
2023-09-12T06:43:09.517Z,41.10
2023-09-12T06:44:11.898Z,44.13
2023-09-12T06:45:13.946Z,56.57
2023-09-12T06:46:21.029Z,54.40
2023-09-12T06:47:23.090Z,55.58
2023-09-12T06:48:25.921Z,50.03
2023-09-12T06:49:27.854Z,52.58
2023-09-12T06:50:33.860Z,45.97
2023-09-12T06:51:38.654Z,45.97
2023-09-12T06:52:40.978Z,45.45
2023-09-12T06:53:43.266Z,50.60
2023-09-12T06:54:45.355Z,52.88
2023-09-12T06:55:47.547Z,50.47
2023-09-12T06:56:49.795Z,53.08
2023-09-12T06:57:53.026Z,49.40
2023-09-12T06:58:56.262Z,50.95
2023-09-12T06:59:58.181Z,50.45
2023-09-12T07:01:07.144Z,47.95
2023-09-12T07:02:09.720Z,48.53
2023-09-12T07:03:14.855Z,51.40
2023-09-12T07:04:18.517Z,48.70
2023-09-12T07:05:20.316Z,59.95
2023-09-12T07:06:23.143Z,51.50
2023-09-12T07:07:24.991Z,50.63
2023-09-12T07:08:29.636Z,46.15
2023-09-12T07:09:32.351Z,40.55
2023-09-12T07:10:34.228Z,40.33
2023-09-12T07:11:36.439Z,44.55
2023-09-12T07:12:38.334Z,43.80
2023-09-12T07:13:40.453Z,47.55
2023-09-12T07:14:42.805Z,46.53
2023-09-12T07:15:44.797Z,45.10
2023-09-12T07:16:46.650Z,47.60
2023-09-12T07:17:48.707Z,51.58
2023-09-12T07:18:51.512Z,45.80
2023-09-12T07:19:54.172Z,46.53
2023-09-12T07:21:00.502Z,42.42
2023-09-12T07:22:04.796Z,43.08
2023-09-12T07:23:06.634Z,38.83
2023-09-12T07:24:08.693Z,40.95
2023-09-12T07:25:13.258Z,41.00
2023-09-12T07:26:15.954Z,48.35
2023-09-12T07:27:17.794Z,49.57
2023-09-12T07:28:20.794Z,52.55
2023-09-12T07:29:22.648Z,49.13
2023-09-12T07:30:24.870Z,58.17
2023-09-12T07:31:26.879Z,58.42
2023-09-12T07:32:29.751Z,54.40
2023-09-12T07:33:31.641Z,54.55
2023-09-12T07:34:34.217Z,58.03
2023-09-12T07:35:35.981Z,69.80
2023-09-12T07:36:38.055Z,59.75
2023-09-12T07:37:39.936Z,54.73
2023-09-12T07:38:43.099Z,57.65
2023-09-12T07:39:45.267Z,48.50
2023-09-12T07:40:47.208Z,45.47
2023-09-12T07:41:49.001Z,44.92
2023-09-12T07:42:50.902Z,49.60
2023-09-12T07:43:52.927Z,47.78
2023-09-12T07:44:54.792Z,46.65
2023-09-12T07:45:59.832Z,49.50
2023-09-12T07:47:02.605Z,53.92
2023-09-12T07:48:08.330Z,56.57
2023-09-12T07:49:10.307Z,48.05
2023-09-12T07:50:12.154Z,48.38
2023-09-12T07:51:19.171Z,51.45
2023-09-12T07:52:21.368Z,51.50
2023-09-12T07:53:23.814Z,50.15
2023-09-12T07:54:25.738Z,50.72
2023-09-12T07:55:31.336Z,59.42
2023-09-12T07:56:33.185Z,61.92
2023-09-12T07:57:35.565Z,61.33
2023-09-12T07:58:37.452Z,58.17
2023-09-12T07:59:39.302Z,67.82
2023-09-12T08:00:41.605Z,61.78
2023-09-12T08:01:43.701Z,66.93
2023-09-12T08:02:45.576Z,65.80
2023-09-12T08:03:48.555Z,66.22
2023-09-12T08:04:52.118Z,64.70
2023-09-12T08:05:58.707Z,62.63
2023-09-12T08:07:01.859Z,60.25
2023-09-12T08:08:04.466Z,60.72
2023-09-12T08:09:06.300Z,59.30
2023-09-12T08:10:08.424Z,55.67
2023-09-12T08:11:11.404Z,67.65
2023-09-12T08:12:13.538Z,64.55
2023-09-12T08:13:15.464Z,67.93
2023-09-12T08:14:17.745Z,62.28
2023-09-12T08:15:20.328Z,71.10
2023-09-12T08:16:22.328Z,73.68
2023-09-12T08:17:24.732Z,75.57
2023-09-12T08:18:30.455Z,70.13
2023-09-12T08:19:32.471Z,77.40
2023-09-12T08:20:34.279Z,73.75
2023-09-12T08:21:36.090Z,71.13
2023-09-12T08:22:39.176Z,77.55
2023-09-12T08:23:41.495Z,80.10
2023-09-12T08:24:43.714Z,73.65
2023-09-12T08:25:45.617Z,66.47
2023-09-12T08:26:47.345Z,67.32
2023-09-12T08:27:49.332Z,71.28
2023-09-12T08:28:51.231Z,71.78
2023-09-12T08:29:53.075Z,78.33
2023-09-12T08:30:54.945Z,73.70
2023-09-12T08:31:57.145Z,78.97
2023-09-12T08:32:59.118Z,74.72
2023-09-12T08:34:01.138Z,70.68
2023-09-12T08:35:04.942Z,68.40
2023-09-12T08:36:07.029Z,62.53
2023-09-12T08:37:08.732Z,73.00
2023-09-12T08:38:11.417Z,77.53
2023-09-12T08:39:15.674Z,70.65
2023-09-12T08:40:17.696Z,74.83
2023-09-12T08:41:19.658Z,70.78
2023-09-12T08:42:21.545Z,63.60
2023-09-12T08:43:23.294Z,69.72
2023-09-12T08:44:25.174Z,71.95
2023-09-12T08:45:27.461Z,62.50
2023-09-12T08:46:29.330Z,65.35
2023-09-12T08:47:32.557Z,67.07
2023-09-12T08:48:35.578Z,64.63
2023-09-12T08:49:38.735Z,62.88
2023-09-12T08:50:40.966Z,66.37
2023-09-12T08:51:43.456Z,65.55
2023-09-12T08:53:03.715Z,63.88
2023-09-12T08:54:10.196Z,64.85
2023-09-12T08:55:12.941Z,65.88
2023-09-12T08:56:14.907Z,62.92
2023-09-12T08:57:17.689Z,68.15
2023-09-12T08:58:20.435Z,63.22
2023-09-12T08:59:22.582Z,60.00
2023-09-12T09:00:26.010Z,65.07
2023-09-12T09:01:31.076Z,61.60
2023-09-12T09:02:40.836Z,60.78
2023-09-12T09:03:44.084Z,60.40
2023-09-12T09:04:50.004Z,61.60
2023-09-12T09:05:53.809Z,59.17
2023-09-12T09:06:59.083Z,64.72
2023-09-12T09:08:03.741Z,56.33
2023-09-12T09:09:07.730Z,60.47
2023-09-12T09:10:14.858Z,57.42
2023-09-12T09:11:16.812Z,62.80
2023-09-12T09:12:18.539Z,62.63
2023-09-12T09:13:20.556Z,62.90
2023-09-12T09:14:22.562Z,54.53
2023-09-12T09:15:29.145Z,65.22
2023-09-12T09:16:32.512Z,58.85
2023-09-12T09:17:36.250Z,59.50
2023-09-12T09:18:56.865Z,56.83
2023-09-12T09:19:58.848Z,57.13
2023-09-12T09:21:00.764Z,53.45
2023-09-12T09:22:07.289Z,54.42
2023-09-12T09:23:11.745Z,54.00
2023-09-12T09:24:18.884Z,53.30
2023-09-12T09:25:21.933Z,49.80
2023-09-12T09:26:25.057Z,52.92
2023-09-12T09:27:36.081Z,53.50
2023-09-12T09:28:38.361Z,61.15
2023-09-12T09:29:49.359Z,59.25
2023-09-12T09:30:53.045Z,57.75
2023-09-12T09:31:55.148Z,57.75
2023-09-12T09:32:57.003Z,52.78
2023-09-12T09:34:00.182Z,52.10
2023-09-12T09:35:02.354Z,59.92
2023-09-12T09:36:08.951Z,55.33
2023-09-12T09:37:11.058Z,51.22
2023-09-12T09:38:17.773Z,52.38
2023-09-12T09:39:21.792Z,50.65
2023-09-12T09:40:24.541Z,52.80
2023-09-12T09:41:30.093Z,48.70
2023-09-12T09:42:33.138Z,48.30
2023-09-12T09:43:35.145Z,48.83
2023-09-12T09:44:37.555Z,53.87
2023-09-12T09:45:47.962Z,56.70
2023-09-12T09:46:56.322Z,53.55
2023-09-12T09:48:01.507Z,54.22
2023-09-12T09:49:03.487Z,51.67
2023-09-12T09:50:05.727Z,54.88
2023-09-12T09:51:07.425Z,54.72
2023-09-12T09:52:09.428Z,50.17
2023-09-12T09:53:11.856Z,51.70
2023-09-12T09:54:15.191Z,53.80
2023-09-12T09:55:17.129Z,46.27
2023-09-12T09:56:19.367Z,59.60
2023-09-12T09:57:21.194Z,54.67
2023-09-12T09:58:24.977Z,49.83
2023-09-12T09:59:28.341Z,49.60
2023-09-12T10:00:30.468Z,50.92
2023-09-12T10:01:33.584Z,55.20
2023-09-12T10:02:37.170Z,52.92
2023-09-12T10:03:39.843Z,51.28
2023-09-12T10:04:46.327Z,49.28
2023-09-12T10:05:52.525Z,49.93
2023-09-12T10:06:56.878Z,52.70
2023-09-12T10:07:59.364Z,50.00
2023-09-12T10:09:01.973Z,46.72
2023-09-12T10:10:05.270Z,47.13
2023-09-12T10:11:07.863Z,52.78
2023-09-12T10:12:10.439Z,51.13
2023-09-12T10:13:13.396Z,43.95
2023-09-12T10:14:19.277Z,57.90
2023-09-12T10:15:24.056Z,41.00
2023-09-12T10:16:32.950Z,43.57
2023-09-12T10:17:38.386Z,40.17
2023-09-12T10:19:04.254Z,44.13
2023-09-12T10:20:14.146Z,40.03
2023-09-12T10:21:23.183Z,41.15
2023-09-12T10:22:44.954Z,53.30
2023-09-12T10:23:47.589Z,38.90
2023-09-12T10:24:50.925Z,42.33
2023-09-12T10:25:53.697Z,43.40
2023-09-12T10:26:56.808Z,41.42
2023-09-12T10:27:59.434Z,55.70
2023-09-12T10:29:03.770Z,41.28
2023-09-12T10:30:06.685Z,39.60
2023-09-12T10:31:12.787Z,37.20
2023-09-12T10:32:15.808Z,42.47
2023-09-12T10:33:18.713Z,38.15
2023-09-12T10:34:23.146Z,42.20
2023-09-12T10:35:25.794Z,37.22
2023-09-12T10:36:29.324Z,43.25
2023-09-12T10:37:36.224Z,39.47
2023-09-12T10:38:47.977Z,46.77
2023-09-12T10:39:50.399Z,37.90
2023-09-12T10:40:55.856Z,39.03
2023-09-12T10:41:59.519Z,37.40
2023-09-12T10:43:04.482Z,39.38
2023-09-12T10:44:16.802Z,40.92
2023-09-12T10:45:19.353Z,47.17
2023-09-12T10:46:22.649Z,36.03
2023-09-12T10:47:24.953Z,35.40
2023-09-12T10:48:26.780Z,34.58
2023-09-12T10:49:29.553Z,37.50
2023-09-12T10:50:31.587Z,32.27
2023-09-12T10:51:33.834Z,31.55
2023-09-12T10:52:40.762Z,32.50
2023-09-12T10:53:51.521Z,35.10
2023-09-12T10:54:53.884Z,30.15
2023-09-12T10:56:33.435Z,31.38
2023-09-12T10:57:36.699Z,32.47
2023-09-12T10:59:07.565Z,32.70
2023-09-12T11:00:15.090Z,34.28
2023-09-12T11:01:25.275Z,31.53
2023-09-12T11:02:31.122Z,35.63
2023-09-12T11:03:36.109Z,33.90
2023-09-12T11:04:39.038Z,29.48
2023-09-12T11:05:56.275Z,27.15
2023-09-12T11:06:59.559Z,28.52
2023-09-12T11:08:02.637Z,27.23
2023-09-12T11:09:24.262Z,30.52
2023-09-12T11:10:28.048Z,26.00
2023-09-12T11:11:30.032Z,31.77
2023-09-12T11:12:37.520Z,32.33
2023-09-12T11:13:43.487Z,34.83
2023-09-12T11:15:18.411Z,31.02
2023-09-12T11:16:21.425Z,28.50
2023-09-12T11:17:24.208Z,56.40
2023-09-12T11:18:25.950Z,28.52
2023-09-12T11:19:28.084Z,116.13
2023-09-12T11:20:54.444Z,28.67
2023-09-12T11:21:57.414Z,23.50
2023-09-12T11:23:12.668Z,26.00
2023-09-12T11:24:16.122Z,29.20
2023-09-12T11:25:36.911Z,26.53
2023-09-12T11:27:01.667Z,23.17
2023-09-12T11:28:08.080Z,26.45
2023-09-12T11:29:16.742Z,26.33
2023-09-12T11:30:27.629Z,26.30
2023-09-12T11:31:30.312Z,30.00
2023-09-12T11:32:36.001Z,27.08
2023-09-12T11:33:41.488Z,31.98
2023-09-12T11:34:45.678Z,28.35
2023-09-12T11:35:47.533Z,43.50
2023-09-12T11:36:49.609Z,30.70
2023-09-12T11:37:58.687Z,28.17
2023-09-12T11:39:23.123Z,25.98
2023-09-12T11:40:33.472Z,30.15
2023-09-12T11:41:41.331Z,25.58
2023-09-12T11:42:44.376Z,25.38
2023-09-12T11:43:46.775Z,24.45
2023-09-12T11:44:50.387Z,32.22
2023-09-12T11:45:53.173Z,28.27
2023-09-12T11:46:56.230Z,28.17
2023-09-12T11:47:58.247Z,26.53
2023-09-12T11:49:02.757Z,25.90
2023-09-12T11:50:05.118Z,65.03
2023-09-12T11:51:09.156Z,26.38
2023-09-12T11:52:13.822Z,26.88
2023-09-12T11:53:18.184Z,30.42
2023-09-12T11:54:30.491Z,30.77
2023-09-12T11:55:37.855Z,30.35
2023-09-12T11:56:40.336Z,25.40
2023-09-12T11:57:42.188Z,24.30
2023-09-12T11:58:46.894Z,26.73
2023-09-12T11:59:50.170Z,27.50
2023-09-12T12:00:54.680Z,29.20
2023-09-12T12:01:59.824Z,24.85
2023-09-12T12:03:01.910Z,30.73
2023-09-12T12:04:03.945Z,30.98
2023-09-12T12:05:06.209Z,30.95
2023-09-12T12:06:08.233Z,33.35
2023-09-12T12:07:11.397Z,27.52
2023-09-12T12:08:30.385Z,25.10
2023-09-12T12:09:33.784Z,26.70
2023-09-12T12:10:36.262Z,26.33
2023-09-12T12:11:38.070Z,26.08
2023-09-12T12:12:39.895Z,28.48
2023-09-12T12:13:42.390Z,30.45
2023-09-12T12:14:45.987Z,27.48
2023-09-12T12:15:47.872Z,28.70
2023-09-12T12:16:49.902Z,29.58
2023-09-12T12:17:56.160Z,28.48
2023-09-12T12:18:59.131Z,25.83
2023-09-12T12:20:01.679Z,22.10
2023-09-12T12:21:04.911Z,21.42
2023-09-12T12:22:09.161Z,24.48
2023-09-12T12:23:12.148Z,22.85
2023-09-12T12:24:16.143Z,26.02
2023-09-12T12:25:18.179Z,26.58
2023-09-12T12:26:20.527Z,25.25
2023-09-12T12:27:29.371Z,24.85
2023-09-12T12:28:34.213Z,29.48
2023-09-12T12:29:38.387Z,21.60
2023-09-12T12:30:40.650Z,28.60
2023-09-12T12:31:43.017Z,27.25
2023-09-12T12:32:51.591Z,25.83
2023-09-12T12:34:30.893Z,22.83
2023-09-12T12:35:50.709Z,24.50
2023-09-12T12:36:56.516Z,23.60
2023-09-12T12:38:05.865Z,26.20
2023-09-12T12:39:11.934Z,27.15
2023-09-12T12:40:14.806Z,22.63
2023-09-12T12:41:24.253Z,21.53
2023-09-12T12:42:27.305Z,27.00
2023-09-12T12:43:30.120Z,21.17
2023-09-12T12:44:41.543Z,22.23
2023-09-12T12:45:54.491Z,19.35
2023-09-12T12:46:56.536Z,23.17
2023-09-12T12:48:02.311Z,18.10
2023-09-12T12:49:06.647Z,25.55
2023-09-12T12:50:12.880Z,17.80
2023-09-12T12:51:18.089Z,20.10
2023-09-12T12:52:31.769Z,26.03
2023-09-12T12:54:20.566Z,15.98
2023-09-12T12:55:27.283Z,13.48
2023-09-12T12:56:32.319Z,11.85
2023-09-12T12:57:40.926Z,12.38
2023-09-12T12:59:14.525Z,11.70
2023-09-12T13:00:20.350Z,11.43
2023-09-12T13:01:29.728Z,21.88
2023-09-12T13:02:32.779Z,56.40
2023-09-12T13:03:34.746Z,15.95
2023-09-12T13:05:14.851Z,18.50
2023-09-12T13:06:20.022Z,36.67
2023-09-12T13:07:21.924Z,31.00
2023-09-12T13:08:23.760Z,13.85
2023-09-12T13:09:26.460Z,17.48
2023-09-12T13:10:28.307Z,18.13
2023-09-12T13:11:30.275Z,20.10
2023-09-12T13:12:32.289Z,21.05
2023-09-12T13:13:34.122Z,18.70
2023-09-12T13:14:35.980Z,21.30
2023-09-12T13:15:37.801Z,17.77
2023-09-12T13:16:43.457Z,20.10
2023-09-12T13:17:45.775Z,16.25
2023-09-12T13:18:48.048Z,35.22
2023-09-12T13:19:50.153Z,22.70
2023-09-12T13:20:51.928Z,24.98
2023-09-12T13:21:53.857Z,17.92
2023-09-12T13:22:55.720Z,15.27
2023-09-12T13:23:58.529Z,19.60
2023-09-12T13:25:01.241Z,21.17
2023-09-12T13:26:04.126Z,17.40
2023-09-12T13:27:06.017Z,18.67
2023-09-12T13:28:07.866Z,10.35
2023-09-12T13:29:09.944Z,13.52
2023-09-12T13:30:12.254Z,35.28
2023-09-12T13:31:14.197Z,14.90
2023-09-12T13:32:17.910Z,92.38
2023-09-12T13:33:19.954Z,14.20
2023-09-12T13:34:21.882Z,15.02
2023-09-12T13:35:31.250Z,17.88
2023-09-12T13:36:33.313Z,18.97
2023-09-12T13:37:36.361Z,16.35
2023-09-12T13:38:38.163Z,15.65
2023-09-12T13:39:40.185Z,9.82
2023-09-12T13:40:43.105Z,10.00
2023-09-12T13:41:46.045Z,10.05
2023-09-12T13:42:47.786Z,9.18
2023-09-12T13:43:50.222Z,10.90
2023-09-12T13:44:52.110Z,16.77